createdAt,value
2023-04-25T00:20:13.372Z,99616.86
2023-04-25T00:50:16.440Z,99634.07
2023-04-25T01:20:20.714Z,99621.34
2023-04-25T01:50:23.563Z,99633.58
2023-04-25T02:20:28.083Z,99644.69
2023-04-25T02:50:31.049Z,99642.09
2023-04-25T03:20:34.910Z,99624.36
2023-04-25T03:50:37.866Z,99633.13
2023-04-25T04:20:41.470Z,99644.67
2023-04-25T04:50:44.348Z,99672.39
2023-04-25T05:20:48.726Z,99661.47
2023-04-25T05:50:51.536Z,99674.56
2023-04-25T06:20:57.415Z,99679.63
2023-04-25T06:51:00.255Z,99678.19
2023-04-25T07:21:03.963Z,99680.41
2023-04-25T07:51:07.027Z,99687.38
2023-04-25T08:21:10.044Z,99678.55
2023-04-25T08:51:12.937Z,99711.41
2023-04-25T09:21:17.928Z,99727.41
2023-04-25T09:51:21.157Z,99735.22
2023-04-25T10:21:25.378Z,99752.01
2023-04-25T10:51:30.725Z,99745.95
2023-04-25T11:21:36.514Z,99745.84
2023-04-25T11:51:39.460Z,99793.62
2023-04-25T12:21:54.423Z,99791.72
2023-04-25T12:52:01.699Z,99804.09
2023-04-25T13:22:05.077Z,99811.48
2023-04-25T13:52:07.956Z,99815.16
2023-04-25T14:22:12.929Z,99836.60
2023-04-25T14:52:15.896Z,99859.17
2023-04-25T15:22:20.105Z,99885.14
2023-04-25T15:52:22.958Z,99894.72
2023-04-25T16:22:26.870Z,99916.20
2023-04-25T16:52:29.909Z,99945.73
2023-04-25T17:22:33.777Z,99979.82
2023-04-25T17:52:36.693Z,100009.31
2023-04-25T18:22:40.419Z,100037.89
2023-04-25T18:52:43.263Z,100073.70
2023-04-25T19:22:46.925Z,100107.66
2023-04-25T19:52:49.820Z,100121.91
2023-04-25T20:22:53.281Z,100128.30
2023-04-25T20:52:56.916Z,100136.05
2023-04-25T21:23:00.258Z,100140.33
2023-04-25T21:53:03.542Z,100160.67
2023-04-25T22:23:07.815Z,100178.15
2023-04-25T22:53:11.125Z,100178.94
2023-04-25T23:23:14.624Z,100193.91
2023-04-25T23:53:18.039Z,100208.80
